sensor_id;sensor_type;location;lat;lon;timestamp;pressure;altitude;pressure_sealevel;temperature;humidity
25947;BME280;13745;51.470;9.894;2024-02-21T00:00:15;99952.94;;;8.80;80.00
25947;BME280;13745;51.470;9.894;2024-02-21T00:03:01;99958.13;;;8.78;80.02
25947;BME280;13745;51.470;9.894;2024-02-21T00:05:48;99949.50;;;8.78;80.62
25947;BME280;13745;51.470;9.894;2024-02-21T00:08:33;99949.47;;;8.76;80.32
25947;BME280;13745;51.470;9.894;2024-02-21T00:11:18;99952.94;;;8.78;80.92
25947;BME280;13745;51.470;9.894;2024-02-21T00:14:03;99952.06;;;8.76;80.88
25947;BME280;13745;51.470;9.894;2024-02-21T00:16:50;99954.63;;;8.76;81.11
25947;BME280;13745;51.470;9.894;2024-02-21T00:19:35;99960.66;;;8.75;81.54
25947;BME280;13745;51.470;9.894;2024-02-21T00:22:20;99951.19;;;8.72;81.70
25947;BME280;13745;51.470;9.894;2024-02-21T00:25:05;99942.59;;;8.69;81.72
25947;BME280;13745;51.470;9.894;2024-02-21T00:27:50;99950.31;;;8.67;81.88
25947;BME280;13745;51.470;9.894;2024-02-21T00:30:35;99952.03;;;8.65;81.98
25947;BME280;13745;51.470;9.894;2024-02-21T00:33:23;99946.81;;;8.59;82.04
25947;BME280;13745;51.470;9.894;2024-02-21T00:36:08;99950.28;;;8.57;82.60
25947;BME280;13745;51.470;9.894;2024-02-21T00:38:53;99942.50;;;8.51;82.56
25947;BME280;13745;51.470;9.894;2024-02-21T00:41:38;99949.38;;;8.47;82.72
25947;BME280;13745;51.470;9.894;2024-02-21T00:44:23;99947.66;;;8.44;82.60
25947;BME280;13745;51.470;9.894;2024-02-21T00:47:10;99939.03;;;8.44;82.68
25947;BME280;13745;51.470;9.894;2024-02-21T00:49:56;99942.50;;;8.46;82.90
25947;BME280;13745;51.470;9.894;2024-02-21T00:52:41;99932.97;;;8.42;83.00
25947;BME280;13745;51.470;9.894;2024-02-21T00:55:27;99932.13;;;8.38;82.83
25947;BME280;13745;51.470;9.894;2024-02-21T00:58:11;99921.75;;;8.35;83.14
25947;BME280;13745;51.470;9.894;2024-02-21T01:00:56;99924.34;;;8.35;82.85
25947;BME280;13745;51.470;9.894;2024-02-21T01:03:41;99926.94;;;8.37;82.86
25947;BME280;13745;51.470;9.894;2024-02-21T01:06:28;99917.47;;;8.36;83.39
25947;BME280;13745;51.470;9.894;2024-02-21T01:09:13;99920.94;;;8.36;83.40
25947;BME280;13745;51.470;9.894;2024-02-21T01:11:58;99916.59;;;8.35;83.07
25947;BME280;13745;51.470;9.894;2024-02-21T01:14:44;99913.97;;;8.32;83.50
25947;BME280;13745;51.470;9.894;2024-02-21T01:17:29;99917.41;;;8.34;83.24
25947;BME280;13745;51.470;9.894;2024-02-21T01:20:15;99908.81;;;8.32;83.26
25947;BME280;13745;51.470;9.894;2024-02-21T01:23:02;99903.63;;;8.31;83.08
25947;BME280;13745;51.470;9.894;2024-02-21T01:25:47;99899.34;;;8.31;83.43
25947;BME280;13745;51.470;9.894;2024-02-21T01:28:32;99901.06;;;8.32;83.04
25947;BME280;13745;51.470;9.894;2024-02-21T01:31:17;99901.06;;;8.31;83.19
25947;BME280;13745;51.470;9.894;2024-02-21T01:34:02;99889.88;;;8.33;83.60
25947;BME280;13745;51.470;9.894;2024-02-21T01:36:47;99883.84;;;8.34;83.24
25947;BME280;13745;51.470;9.894;2024-02-21T01:39:34;99884.69;;;8.33;83.60
25947;BME280;13745;51.470;9.894;2024-02-21T01:42:19;99878.75;;;8.36;82.95
25947;BME280;13745;51.470;9.894;2024-02-21T01:45:04;99881.31;;;8.37;83.59
25947;BME280;13745;51.470;9.894;2024-02-21T01:47:50;99882.19;;;8.38;83.11
25947;BME280;13745;51.470;9.894;2024-02-21T01:50:35;99873.56;;;8.39;83.48
25947;BME280;13745;51.470;9.894;2024-02-21T01:53:22;99864.97;;;8.37;83.89
25947;BME280;13745;51.470;9.894;2024-02-21T01:56:09;99858.94;;;8.38;83.44
25947;BME280;13745;51.470;9.894;2024-02-21T01:58:55;99853.78;;;8.38;83.79
25947;BME280;13745;51.470;9.894;2024-02-21T02:01:40;99858.06;;;8.39;83.46
25947;BME280;13745;51.470;9.894;2024-02-21T02:04:26;99857.22;;;8.38;83.47
25947;BME280;13745;51.470;9.894;2024-02-21T02:07:11;99861.53;;;8.39;83.44
25947;BME280;13745;51.470;9.894;2024-02-21T02:09:56;99858.94;;;8.38;83.75
25947;BME280;13745;51.470;9.894;2024-02-21T02:12:43;99856.34;;;8.38;83.85
25947;BME280;13745;51.470;9.894;2024-02-21T02:15:37;99860.66;;;8.40;83.43
25947;BME280;13745;51.470;9.894;2024-02-21T02:18:22;99856.34;;;8.41;83.58
25947;BME280;13745;51.470;9.894;2024-02-21T02:21:16;99846.88;;;8.41;83.68
25947;BME280;13745;51.470;9.894;2024-02-21T02:24:09;99837.41;;;8.42;83.49
25947;BME280;13745;51.470;9.894;2024-02-21T02:26:54;99837.41;;;8.42;83.49
25947;BME280;13745;51.470;9.894;2024-02-21T02:29:39;99838.28;;;8.46;83.25
25947;BME280;13745;51.470;9.894;2024-02-21T02:32:25;99833.13;;;8.44;83.43
25947;BME280;13745;51.470;9.894;2024-02-21T02:35:10;99827.09;;;8.45;83.64
25947;BME280;13745;51.470;9.894;2024-02-21T02:37:55;99829.69;;;8.47;83.42
25947;BME280;13745;51.470;9.894;2024-02-21T02:40:42;99810.75;;;8.48;83.60
25947;BME280;13745;51.470;9.894;2024-02-21T02:43:27;99809.03;;;8.47;83.51
25947;BME280;13745;51.470;9.894;2024-02-21T02:46:12;99814.19;;;8.47;83.41
25947;BME280;13745;51.470;9.894;2024-02-21T02:48:57;99803.81;;;8.42;83.49
25947;BME280;13745;51.470;9.894;2024-02-21T02:51:42;99795.22;;;8.41;83.33
25947;BME280;13745;51.470;9.894;2024-02-21T02:54:27;99796.06;;;8.42;83.58
25947;BME280;13745;51.470;9.894;2024-02-21T02:57:13;99790.06;;;8.41;83.29
25947;BME280;13745;51.470;9.894;2024-02-21T02:59:58;99782.31;;;8.43;83.28
25947;BME280;13745;51.470;9.894;2024-02-21T03:02:45;99774.56;;;8.41;83.63
25947;BME280;13745;51.470;9.894;2024-02-21T03:05:31;99780.59;;;8.42;83.47
25947;BME280;13745;51.470;9.894;2024-02-21T03:08:16;99776.28;;;8.41;83.63
25947;BME280;13745;51.470;9.894;2024-02-21T03:11:01;99769.38;;;8.41;83.74
25947;BME280;13745;51.470;9.894;2024-02-21T03:13:48;99765.09;;;8.42;83.74
25947;BME280;13745;51.470;9.894;2024-02-21T03:16:34;99752.16;;;8.43;83.24
25947;BME280;13745;51.470;9.894;2024-02-21T03:19:19;99752.16;;;8.43;83.64
25947;BME280;13745;51.470;9.894;2024-02-21T03:22:04;99748.72;;;8.40;83.34
25947;BME280;13745;51.470;9.894;2024-02-21T03:24:49;99752.16;;;8.40;83.44
25947;BME280;13745;51.470;9.894;2024-02-21T03:27:34;99747.00;;;8.39;83.78
25947;BME280;13745;51.470;9.894;2024-02-21T03:30:20;99758.19;;;8.41;83.93
25947;BME280;13745;51.470;9.894;2024-02-21T03:33:06;99759.06;;;8.43;83.34
25947;BME280;13745;51.470;9.894;2024-02-21T03:35:50;99764.25;;;8.46;83.74
25947;BME280;13745;51.470;9.894;2024-02-21T03:38:35;99765.97;;;8.47;83.46
25947;BME280;13745;51.470;9.894;2024-02-21T03:41:20;99758.22;;;8.47;83.53
25947;BME280;13745;51.470;9.894;2024-02-21T03:44:05;99764.25;;;8.46;83.39
25947;BME280;13745;51.470;9.894;2024-02-21T03:46:52;99765.97;;;8.49;83.42
25947;BME280;13745;51.470;9.894;2024-02-21T03:49:37;99764.22;;;8.49;83.90
25947;BME280;13745;51.470;9.894;2024-02-21T03:52:22;99770.25;;;8.50;83.55
25947;BME280;13745;51.470;9.894;2024-02-21T03:55:07;99765.09;;;8.51;83.85
25947;BME280;13745;51.470;9.894;2024-02-21T03:57:53;99761.66;;;8.51;83.71
25947;BME280;13745;51.470;9.894;2024-02-21T04:00:38;99759.94;;;8.50;83.67
25947;BME280;13745;51.470;9.894;2024-02-21T04:03:25;99751.31;;;8.49;83.62
25947;BME280;13745;51.470;9.894;2024-02-21T04:06:10;99739.25;;;8.50;83.53
25947;BME280;13745;51.470;9.894;2024-02-21T04:08:55;99729.78;;;8.49;83.73
25947;BME280;13745;51.470;9.894;2024-02-21T04:11:40;99724.63;;;8.49;83.73
25947;BME280;13745;51.470;9.894;2024-02-21T04:14:25;99723.75;;;8.50;83.66
25947;BME280;13745;51.470;9.894;2024-02-21T04:17:10;99718.59;;;8.50;83.43
25947;BME280;13745;51.470;9.894;2024-02-21T04:20:02;99717.72;;;8.51;83.73
25947;BME280;13745;51.470;9.894;2024-02-21T04:22:49;99713.44;;;8.51;83.26
25947;BME280;13745;51.470;9.894;2024-02-21T04:25:34;99703.94;;;8.52;83.50
25947;BME280;13745;51.470;9.894;2024-02-21T04:28:19;99703.09;;;8.51;83.37
25947;BME280;13745;51.470;9.894;2024-02-21T04:31:04;99702.22;;;8.51;83.38
25947;BME280;13745;51.470;9.894;2024-02-21T04:33:49;99694.50;;;8.49;83.45
25947;BME280;13745;51.470;9.894;2024-02-21T04:36:35;99687.59;;;8.50;83.38
25947;BME280;13745;51.470;9.894;2024-02-21T04:39:20;99688.47;;;8.49;83.58
25947;BME280;13745;51.470;9.894;2024-02-21T04:42:05;99697.06;;;8.48;83.12
25947;BME280;13745;51.470;9.894;2024-02-21T04:44:50;99712.56;;;8.48;83.57
25947;BME280;13745;51.470;9.894;2024-02-21T04:47:36;99709.97;;;8.49;83.52
25947;BME280;13745;51.470;9.894;2024-02-21T04:50:20;99703.94;;;8.50;83.67
25947;BME280;13745;51.470;9.894;2024-02-21T04:53:07;99713.44;;;8.54;83.68
25947;BME280;13745;51.470;9.894;2024-02-21T04:55:52;99703.09;;;8.57;83.13
25947;BME280;13745;51.470;9.894;2024-02-21T04:58:38;99710.00;;;8.61;83.56
25947;BME280;13745;51.470;9.894;2024-02-21T05:01:23;99702.25;;;8.61;83.46
25947;BME280;13745;51.470;9.894;2024-02-21T05:04:08;99697.94;;;8.66;83.12
25947;BME280;13745;51.470;9.894;2024-02-21T05:06:53;99689.34;;;8.69;82.98
25947;BME280;13745;51.470;9.894;2024-02-21T05:09:41;99685.03;;;8.69;82.82
25947;BME280;13745;51.470;9.894;2024-02-21T05:12:27;99684.16;;;8.64;83.03
25947;BME280;13745;51.470;9.894;2024-02-21T05:15:14;99691.91;;;8.66;83.17
25947;BME280;13745;51.470;9.894;2024-02-21T05:17:59;99693.63;;;8.70;82.96
25947;BME280;13745;51.470;9.894;2024-02-21T05:20:44;99697.94;;;8.72;82.86
25947;BME280;13745;51.470;9.894;2024-02-21T05:23:29;99702.25;;;8.72;83.03
25947;BME280;13745;51.470;9.894;2024-02-21T05:26:21;99716.88;;;8.70;83.00
25947;BME280;13745;51.470;9.894;2024-02-21T05:29:06;99713.44;;;8.71;82.88
25947;BME280;13745;51.470;9.894;2024-02-21T05:31:56;99723.78;;;8.72;82.62
25947;BME280;13745;51.470;9.894;2024-02-21T05:34:42;99728.09;;;8.72;82.67
25947;BME280;13745;51.470;9.894;2024-02-21T05:37:27;99722.03;;;8.73;82.76
25947;BME280;13745;51.470;9.894;2024-02-21T05:40:13;99717.75;;;8.72;82.59
25947;BME280;13745;51.470;9.894;2024-02-21T05:42:59;99717.75;;;8.73;82.66
25947;BME280;13745;51.470;9.894;2024-02-21T05:45:44;99725.47;;;8.75;82.57
25947;BME280;13745;51.470;9.894;2024-02-21T05:48:29;99732.38;;;8.76;82.67
25947;BME280;13745;51.470;9.894;2024-02-21T05:51:14;99740.97;;;8.77;82.38
25947;BME280;13745;51.470;9.894;2024-02-21T05:53:59;99740.13;;;8.76;82.30
25947;BME280;13745;51.470;9.894;2024-02-21T05:56:45;99745.31;;;8.73;82.51
25947;BME280;13745;51.470;9.894;2024-02-21T05:59:32;99741.88;;;8.71;82.46
25947;BME280;13745;51.470;9.894;2024-02-21T06:02:18;99737.53;;;8.67;82.82
25947;BME280;13745;51.470;9.894;2024-02-21T06:05:04;99735.81;;;8.66;82.43
25947;BME280;13745;51.470;9.894;2024-02-21T06:07:51;99746.19;;;8.70;82.66
25947;BME280;13745;51.470;9.894;2024-02-21T06:10:36;99737.56;;;8.70;82.52
25947;BME280;13745;51.470;9.894;2024-02-21T06:13:21;99726.34;;;8.66;82.68
25947;BME280;13745;51.470;9.894;2024-02-21T06:16:07;99718.63;;;8.69;82.52
25947;BME280;13745;51.470;9.894;2024-02-21T06:18:53;99713.44;;;8.71;82.59
25947;BME280;13745;51.470;9.894;2024-02-21T06:21:38;99711.72;;;8.70;82.16
25947;BME280;13745;51.470;9.894;2024-02-21T06:24:23;99706.56;;;8.70;82.42
25947;BME280;13745;51.470;9.894;2024-02-21T06:27:08;99706.53;;;8.75;81.95
25947;BME280;13745;51.470;9.894;2024-02-21T06:29:54;99695.34;;;8.76;82.08
25947;BME280;13745;51.470;9.894;2024-02-21T06:32:41;99694.47;;;8.77;82.32
25947;BME280;13745;51.470;9.894;2024-02-21T06:35:26;99694.47;;;8.77;82.08
25947;BME280;13745;51.470;9.894;2024-02-21T06:38:11;99701.38;;;8.78;81.71
25947;BME280;13745;51.470;9.894;2024-02-21T06:40:56;99695.34;;;8.79;82.06
25947;BME280;13745;51.470;9.894;2024-02-21T06:43:42;99689.31;;;8.80;81.69
25947;BME280;13745;51.470;9.894;2024-02-21T06:46:28;99683.28;;;8.79;81.82
25947;BME280;13745;51.470;9.894;2024-02-21T06:49:14;99672.94;;;8.76;81.64
25947;BME280;13745;51.470;9.894;2024-02-21T06:52:00;99681.53;;;8.77;81.72
25947;BME280;13745;51.470;9.894;2024-02-21T06:54:45;99679.84;;;8.74;81.65
25947;BME280;13745;51.470;9.894;2024-02-21T06:57:31;99669.53;;;8.69;81.86
25947;BME280;13745;51.470;9.894;2024-02-21T07:00:17;99671.22;;;8.72;81.91
25947;BME280;13745;51.470;9.894;2024-02-21T07:03:02;99665.19;;;8.71;82.00
25947;BME280;13745;51.470;9.894;2024-02-21T07:05:49;99661.75;;;8.69;81.87
25947;BME280;13745;51.470;9.894;2024-02-21T07:08:34;99658.31;;;8.73;81.69
25947;BME280;13745;51.470;9.894;2024-02-21T07:11:19;99671.22;;;8.78;81.59
25947;BME280;13745;51.470;9.894;2024-02-21T07:14:04;99660.00;;;8.82;81.44
25947;BME280;13745;51.470;9.894;2024-02-21T07:16:49;99655.69;;;8.83;81.44
25947;BME280;13745;51.470;9.894;2024-02-21T07:19:34;99668.63;;;8.83;81.36
25947;BME280;13745;51.470;9.894;2024-02-21T07:22:20;99665.19;;;8.81;81.60
25947;BME280;13745;51.470;9.894;2024-02-21T07:25:06;99659.13;;;8.83;81.56
25947;BME280;13745;51.470;9.894;2024-02-21T07:27:51;99641.91;;;8.87;81.48
25947;BME280;13745;51.470;9.894;2024-02-21T07:30:36;99634.13;;;8.93;81.41
25947;BME280;13745;51.470;9.894;2024-02-21T07:33:21;99639.28;;;9.00;80.91
25947;BME280;13745;51.470;9.894;2024-02-21T07:36:07;99639.22;;;9.16;80.67
25947;BME280;13745;51.470;9.894;2024-02-21T07:38:53;99634.88;;;9.28;80.40
25947;BME280;13745;51.470;9.894;2024-02-21T07:41:39;99629.66;;;9.38;80.47
25947;BME280;13745;51.470;9.894;2024-02-21T07:44:25;99633.97;;;9.39;79.44
25947;BME280;13745;51.470;9.894;2024-02-21T07:47:10;99622.75;;;9.44;79.59
25947;BME280;13745;51.470;9.894;2024-02-21T07:49:54;99634.72;;;9.59;79.03
25947;BME280;13745;51.470;9.894;2024-02-21T07:52:39;99627.72;;;9.75;78.98
25947;BME280;13745;51.470;9.894;2024-02-21T07:55:25;99631.13;;;9.88;78.47
25947;BME280;13745;51.470;9.894;2024-02-21T07:58:10;99633.66;;;9.92;78.33
25947;BME280;13745;51.470;9.894;2024-02-21T08:00:55;99621.56;;;9.97;78.11
25947;BME280;13745;51.470;9.894;2024-02-21T08:03:40;99622.41;;;9.99;78.26
25947;BME280;13745;51.470;9.894;2024-02-21T08:06:25;99624.13;;;9.99;78.09
25947;BME280;13745;51.470;9.894;2024-02-21T08:09:10;99628.41;;;10.06;77.86
25947;BME280;13745;51.470;9.894;2024-02-21T08:11:57;99634.41;;;10.11;77.54
25947;BME280;13745;51.470;9.894;2024-02-21T08:14:42;99636.19;;;10.03;77.45
25947;BME280;13745;51.470;9.894;2024-02-21T08:17:27;99629.28;;;10.05;77.52
25947;BME280;13745;51.470;9.894;2024-02-21T08:20:12;99625.78;;;10.07;77.41
25947;BME280;13745;51.470;9.894;2024-02-21T08:22:57;99619.69;;;10.14;77.16
25947;BME280;13745;51.470;9.894;2024-02-21T08:25:42;99622.28;;;10.16;76.82
25947;BME280;13745;51.470;9.894;2024-02-21T08:28:28;99628.31;;;10.23;76.88
25947;BME280;13745;51.470;9.894;2024-02-21T08:31:18;99620.47;;;10.30;76.52
25947;BME280;13745;51.470;9.894;2024-02-21T08:34:04;99623.81;;;10.43;76.37
25947;BME280;13745;51.470;9.894;2024-02-21T08:36:49;99614.13;;;10.62;75.86
25947;BME280;13745;51.470;9.894;2024-02-21T08:39:35;99611.50;;;10.68;75.34
25947;BME280;13745;51.470;9.894;2024-02-21T08:42:20;99608.78;;;10.79;75.22
25947;BME280;13745;51.470;9.894;2024-02-21T08:45:07;99599.03;;;10.99;74.95
25947;BME280;13745;51.470;9.894;2024-02-21T08:47:53;99596.19;;;11.20;74.42
25947;BME280;13745;51.470;9.894;2024-02-21T08:50:38;99590.84;;;11.34;73.68
25947;BME280;13745;51.470;9.894;2024-02-21T08:53:23;99593.19;;;11.52;73.15
25947;BME280;13745;51.470;9.894;2024-02-21T08:56:08;99580.94;;;11.62;72.55
25947;BME280;13745;51.470;9.894;2024-02-21T08:58:53;99582.53;;;11.71;72.18
25947;BME280;13745;51.470;9.894;2024-02-21T09:01:39;99583.47;;;11.65;72.18
25947;BME280;13745;51.470;9.894;2024-02-21T09:04:24;99584.44;;;11.60;71.90
25947;BME280;13745;51.470;9.894;2024-02-21T09:07:09;99574.78;;;11.66;71.57
25947;BME280;13745;51.470;9.894;2024-02-21T09:09:55;99585.88;;;11.80;71.47
25947;BME280;13745;51.470;9.894;2024-02-21T09:12:40;99580.72;;;11.77;71.37
25947;BME280;13745;51.470;9.894;2024-02-21T09:15:25;99571.97;;;11.85;71.15
25947;BME280;13745;51.470;9.894;2024-02-21T09:18:12;99578.16;;;12.30;70.27
25947;BME280;13745;51.470;9.894;2024-02-21T09:20:57;99569.03;;;12.55;69.53
25947;BME280;13745;51.470;9.894;2024-02-21T09:23:42;99571.69;;;12.52;69.08
25947;BME280;13745;51.470;9.894;2024-02-21T09:26:27;99567.84;;;12.24;69.55
25947;BME280;13745;51.470;9.894;2024-02-21T09:29:12;99554.25;;;12.09;69.64
25947;BME280;13745;51.470;9.894;2024-02-21T09:31:59;99551.41;;;12.25;69.43
25947;BME280;13745;51.470;9.894;2024-02-21T09:34:46;99547.63;;;12.43;68.91
25947;BME280;13745;51.470;9.894;2024-02-21T09:37:31;99550.09;;;12.47;68.48
25947;BME280;13745;51.470;9.894;2024-02-21T09:40:16;99542.50;;;12.36;68.20
25947;BME280;13745;51.470;9.894;2024-02-21T09:43:03;99542.44;;;12.40;68.24
25947;BME280;13745;51.470;9.894;2024-02-21T09:45:50;99539.53;;;12.58;68.17
25947;BME280;13745;51.470;9.894;2024-02-21T09:48:51;99545.94;;;12.38;67.95
25947;BME280;13745;51.470;9.894;2024-02-21T09:51:41;99533.78;;;12.39;68.26
25947;BME280;13745;51.470;9.894;2024-02-21T09:54:28;99540.25;;;12.64;67.54
25947;BME280;13745;51.470;9.894;2024-02-21T09:57:15;99533.34;;;12.63;67.47
25947;BME280;13745;51.470;9.894;2024-02-21T10:00:00;99529.44;;;12.40;67.84
25947;BME280;13745;51.470;9.894;2024-02-21T10:02:58;99527.56;;;12.48;67.82
25947;BME280;13745;51.470;9.894;2024-02-21T10:05:47;99522.84;;;12.22;68.52
25947;BME280;13745;51.470;9.894;2024-02-21T10:08:35;99537.13;;;11.98;68.56
25947;BME280;13745;51.470;9.894;2024-02-21T10:11:23;99531.34;;;11.79;68.88
25947;BME280;13745;51.470;9.894;2024-02-21T10:14:08;99538.34;;;11.72;69.20
25947;BME280;13745;51.470;9.894;2024-02-21T10:16:57;99530.75;;;11.62;69.17
25947;BME280;13745;51.470;9.894;2024-02-21T10:19:43;99541.28;;;11.49;69.49
25947;BME280;13745;51.470;9.894;2024-02-21T10:22:28;99532.56;;;11.55;69.51
25947;BME280;13745;51.470;9.894;2024-02-21T10:25:16;99529.88;;;11.61;69.45
25947;BME280;13745;51.470;9.894;2024-02-21T10:28:03;99525.31;;;11.77;69.10
25947;BME280;13745;51.470;9.894;2024-02-21T10:30:50;99532.97;;;11.88;68.87
25947;BME280;13745;51.470;9.894;2024-02-21T10:33:35;99517.34;;;11.89;68.67
25947;BME280;13745;51.470;9.894;2024-02-21T10:36:21;99507.94;;;11.84;68.97
25947;BME280;13745;51.470;9.894;2024-02-21T10:39:06;99502.81;;;11.76;69.02
25947;BME280;13745;51.470;9.894;2024-02-21T10:41:55;99495.25;;;11.62;69.36
25947;BME280;13745;51.470;9.894;2024-02-21T10:44:44;99485.94;;;11.47;69.83
25947;BME280;13745;51.470;9.894;2024-02-21T10:47:32;99485.28;;;11.35;70.05
25947;BME280;13745;51.470;9.894;2024-02-21T10:50:18;99483.59;;;11.34;70.06
25947;BME280;13745;51.470;9.894;2024-02-21T10:53:09;99485.28;;;11.35;70.21
25947;BME280;13745;51.470;9.894;2024-02-21T10:56:08;99480.00;;;11.39;70.50
25947;BME280;13745;51.470;9.894;2024-02-21T10:58:57;99475.69;;;11.40;70.04
25947;BME280;13745;51.470;9.894;2024-02-21T11:01:42;99473.97;;;11.39;70.02
25947;BME280;13745;51.470;9.894;2024-02-21T11:04:27;99474.03;;;11.36;69.95
25947;BME280;13745;51.470;9.894;2024-02-21T11:07:15;99460.03;;;11.46;69.96
25947;BME280;13745;51.470;9.894;2024-02-21T11:10:00;99452.72;;;11.69;69.70
25947;BME280;13745;51.470;9.894;2024-02-21T11:12:46;99454.97;;;11.92;69.17
25947;BME280;13745;51.470;9.894;2024-02-21T11:15:32;99439.88;;;12.13;68.92
25947;BME280;13745;51.470;9.894;2024-02-21T11:18:23;99442.59;;;12.51;68.21
25947;BME280;13745;51.470;9.894;2024-02-21T11:21:08;99435.03;;;12.79;67.63
25947;BME280;13745;51.470;9.894;2024-02-21T11:23:55;99419.31;;;13.94;65.05
25947;BME280;13745;51.470;9.894;2024-02-21T11:26:40;99404.44;;;14.61;63.89
25947;BME280;13745;51.470;9.894;2024-02-21T11:29:27;99404.03;;;14.75;63.56
25947;BME280;13745;51.470;9.894;2024-02-21T11:32:16;99401.59;;;14.69;62.94
25947;BME280;13745;51.470;9.894;2024-02-21T11:35:03;99391.59;;;14.22;63.27
25947;BME280;13745;51.470;9.894;2024-02-21T11:37:48;99381.00;;;14.59;62.52
25947;BME280;13745;51.470;9.894;2024-02-21T11:40:33;99387.16;;;15.14;61.76
25947;BME280;13745;51.470;9.894;2024-02-21T11:43:19;99379.66;;;15.83;60.11
25947;BME280;13745;51.470;9.894;2024-02-21T11:46:05;99384.28;;;16.72;58.35
25947;BME280;13745;51.470;9.894;2024-02-21T11:48:51;99367.66;;;17.17;57.51
25947;BME280;13745;51.470;9.894;2024-02-21T11:51:37;99366.53;;;17.44;57.24
25947;BME280;13745;51.470;9.894;2024-02-21T11:54:22;99350.56;;;16.63;57.58
25947;BME280;13745;51.470;9.894;2024-02-21T11:57:07;99352.47;;;15.62;59.65
25947;BME280;13745;51.470;9.894;2024-02-21T11:59:52;99359.94;;;14.94;60.42
25947;BME280;13745;51.470;9.894;2024-02-21T12:02:39;99355.19;;;14.19;61.89
25947;BME280;13745;51.470;9.894;2024-02-21T12:05:25;99351.03;;;13.81;62.46
25947;BME280;13745;51.470;9.894;2024-02-21T12:08:13;99343.91;;;13.55;63.58
25947;BME280;13745;51.470;9.894;2024-02-21T12:10:57;99339.94;;;13.40;63.83
25947;BME280;13745;51.470;9.894;2024-02-21T12:13:43;99335.19;;;13.22;64.25
25947;BME280;13745;51.470;9.894;2024-02-21T12:16:28;99321.53;;;13.12;64.58
25947;BME280;13745;51.470;9.894;2024-02-21T12:19:14;99315.75;;;13.37;64.03
25947;BME280;13745;51.470;9.894;2024-02-21T12:22:02;99316.28;;;13.14;64.74
25947;BME280;13745;51.470;9.894;2024-02-21T12:24:49;99321.22;;;12.89;65.25
25947;BME280;13745;51.470;9.894;2024-02-21T12:27:34;99305.50;;;12.58;65.86
25947;BME280;13745;51.470;9.894;2024-02-21T12:30:19;99309.84;;;12.17;66.63
25947;BME280;13745;51.470;9.894;2024-02-21T12:33:05;99308.69;;;11.89;67.24
25947;BME280;13745;51.470;9.894;2024-02-21T12:35:50;99305.59;;;11.68;67.73
25947;BME280;13745;51.470;9.894;2024-02-21T12:38:36;99308.38;;;11.59;67.78
25947;BME280;13745;51.470;9.894;2024-02-21T12:41:21;99304.22;;;11.49;68.84
25947;BME280;13745;51.470;9.894;2024-02-21T12:44:09;99287.81;;;11.47;68.83
25947;BME280;13745;51.470;9.894;2024-02-21T12:46:55;99284.13;;;11.60;68.67
25947;BME280;13745;51.470;9.894;2024-02-21T12:49:40;99279.53;;;11.73;68.59
25947;BME280;13745;51.470;9.894;2024-02-21T12:52:25;99278.66;;;11.75;68.60
25947;BME280;13745;51.470;9.894;2024-02-21T12:55:12;99282.88;;;11.79;68.54
25947;BME280;13745;51.470;9.894;2024-02-21T12:58:03;99283.56;;;11.89;68.36
25947;BME280;13745;51.470;9.894;2024-02-21T13:00:48;99276.47;;;11.97;68.42
25947;BME280;13745;51.470;9.894;2024-02-21T13:03:33;99276.47;;;11.97;68.07
25947;BME280;13745;51.470;9.894;2024-02-21T13:06:18;99272.28;;;11.90;68.00
25947;BME280;13745;51.470;9.894;2024-02-21T13:09:03;99271.28;;;11.97;67.95
25947;BME280;13745;51.470;9.894;2024-02-21T13:11:53;99263.25;;;12.08;68.00
25947;BME280;13745;51.470;9.894;2024-02-21T13:14:38;99261.19;;;12.25;67.80
25947;BME280;13745;51.470;9.894;2024-02-21T13:17:23;99256.28;;;12.49;67.53
25947;BME280;13745;51.470;9.894;2024-02-21T13:20:14;99254.56;;;12.85;67.02
25947;BME280;13745;51.470;9.894;2024-02-21T13:22:59;99247.50;;;13.26;65.91
25947;BME280;13745;51.470;9.894;2024-02-21T13:25:44;99227.31;;;14.24;64.24
25947;BME280;13745;51.470;9.894;2024-02-21T13:28:30;99227.81;;;15.16;62.25
25947;BME280;13745;51.470;9.894;2024-02-21T13:31:16;99216.81;;;15.81;61.04
25947;BME280;13745;51.470;9.894;2024-02-21T13:34:01;99220.28;;;16.49;59.69
25947;BME280;13745;51.470;9.894;2024-02-21T13:36:47;99204.81;;;16.65;58.96
25947;BME280;13745;51.470;9.894;2024-02-21T13:39:32;99198.81;;;15.95;59.95
25947;BME280;13745;51.470;9.894;2024-02-21T13:42:18;99194.13;;;15.08;61.15
25947;BME280;13745;51.470;9.894;2024-02-21T13:45:06;99194.78;;;14.36;62.26
25947;BME280;13745;51.470;9.894;2024-02-21T13:47:52;99196.16;;;13.91;63.07
25947;BME280;13745;51.470;9.894;2024-02-21T13:50:37;99181.03;;;13.73;63.50
25947;BME280;13745;51.470;9.894;2024-02-21T13:53:26;99178.75;;;13.62;63.77
25947;BME280;13745;51.470;9.894;2024-02-21T13:56:11;99180.88;;;13.49;63.86
25947;BME280;13745;51.470;9.894;2024-02-21T13:58:58;99166.91;;;13.21;64.32
25947;BME280;13745;51.470;9.894;2024-02-21T14:01:45;99163.00;;;13.05;64.31
25947;BME280;13745;51.470;9.894;2024-02-21T14:04:30;99165.53;;;12.74;64.49
25947;BME280;13745;51.470;9.894;2024-02-21T14:07:15;99154.03;;;12.48;64.89
25947;BME280;13745;51.470;9.894;2024-02-21T14:10:01;99154.34;;;12.36;64.98
25947;BME280;13745;51.470;9.894;2024-02-21T14:12:48;99147.50;;;12.32;65.04
25947;BME280;13745;51.470;9.894;2024-02-21T14:15:33;99139.03;;;12.25;65.01
25947;BME280;13745;51.470;9.894;2024-02-21T14:18:19;99145.03;;;12.27;65.33
25947;BME280;13745;51.470;9.894;2024-02-21T14:21:05;99122.59;;;12.23;65.21
25947;BME280;13745;51.470;9.894;2024-02-21T14:23:50;99116.81;;;12.12;65.19
25947;BME280;13745;51.470;9.894;2024-02-21T14:26:35;99104.19;;;11.97;65.09
25947;BME280;13745;51.470;9.894;2024-02-21T14:29:22;99106.19;;;11.86;65.62
25947;BME280;13745;51.470;9.894;2024-02-21T14:32:07;99101.94;;;11.81;65.38
25947;BME280;13745;51.470;9.894;2024-02-21T14:34:55;99096.84;;;11.77;65.37
25947;BME280;13745;51.470;9.894;2024-02-21T14:37:40;99082.31;;;11.68;65.31
25947;BME280;13745;51.470;9.894;2024-02-21T14:40:25;99069.47;;;11.62;65.31
25947;BME280;13745;51.470;9.894;2024-02-21T14:43:10;99074.75;;;11.58;65.31